XK310 / F-GRPY 7700 Squawk Report (20th of October, 2019)

Aircraft AT75 Reg No. F-GRPY Age 11 years old
Model ATR 72 Turboprop engines 2 First flight 01-12-07
Registered 10-10 Rollout 11-07 Delivered 09-02-07
Construction No. 742 Line No. N/A Series 212A
ADSHEX 3945F8 Airline name Air Corsica Owner Kaliste Prop
Airfield based Ajaccio~Corse du Sud~F First tracked 2017-07-13 06:19:00

Flight history for F-GRPY

Route Flight No Date Playback
???? N/A 2019-11-21 19:14:00
???? N/A 2019-11-21 09:08:00
Mohammed V International (CMN) - Campo Dell Oro (AJA) XK951 2019-11-20 18:10:00
Provence (MRS) - Saint Catherine (CLY) XK351 2019-11-20 16:04:00
Saint Catherine (CLY) - Provence (MRS) XK350 2019-11-20 07:45:00
Campo Dell Oro (AJA) - Provence (MRS) XK154 2019-11-20 06:56:00
Provence (MRS) - Saint Catherine (CLY) XK351 2019-11-19 15:56:00
Saint Catherine (CLY) - Provence (MRS) XK350 2019-11-19 06:51:00
Provence (MRS) - Saint Catherine (CLY) XK351 2019-11-18 15:53:00
Sud Corse (FSC) - Provence (MRS) XK450 2019-11-18 06:57:00
Provence (MRS) - Sud Corse (FSC) XK457 2019-11-18 06:06:00
Sud Corse (FSC) - Provence (MRS) XK456 2019-11-17 19:32:00
Cote D Azur (NCE) - Sud Corse (FSC) XK401 2019-11-17 16:40:00
Sud Corse (FSC) - Cote D Azur (NCE) XK402 2019-11-17 16:00:00
Cote D Azur (NCE) - Sud Corse (FSC) XK401 2019-11-16 11:46:00
Sud Corse (FSC) - Cote D Azur (NCE) XK402 2019-11-16 11:10:00
Provence (MRS) - Sud Corse (FSC) XK451 2019-11-16 08:35:00
Sud Corse (FSC) - Provence (MRS) XK450 2019-11-16 06:58:00
Provence (MRS) - Sud Corse (FSC) XK457 2019-11-16 06:10:00
Sud Corse (FSC) - Provence (MRS) XK456 2019-11-15 20:20:00
Time Lat Lon Altitude Heading Speed Vertical Rate
2019-10-20 11:58:29 GMT 43.663101 7.207207 0 272 24 0
2019-10-20 11:58:22 GMT 43.663101 7.208061 0 261 24 0
2019-10-20 11:58:06 GMT 43.662930 7.209953 0 337 19 0
2019-10-20 11:57:57 GMT 43.662239 7.210121 0 351 24 0
2019-10-20 11:57:44 GMT 43.660698 7.210464 0 348 23 0
2019-10-20 11:57:40 GMT 43.660179 7.210644 0 348 22 0
2019-10-20 11:57:30 GMT 43.659668 7.211151 0 267 18 0
2019-10-20 11:57:18 GMT 43.660015 7.212018 0 222 12 0
2019-10-20 11:56:59 GMT 43.660015 7.212181 0 222 0 0
2019-10-20 11:56:48 GMT 43.660015 7.212181 0 219 0 0
2019-10-20 11:56:36 GMT 43.660183 7.212349 0 222 11 0
2019-10-20 11:56:27 GMT 43.660706 7.213048 0 222 23 0
2019-10-20 11:56:16 GMT 43.661556 7.214073 0 222 24 0
2019-10-20 11:56:06 GMT 43.662239 7.215108 0 225 22 0
2019-10-20 11:55:56 GMT 43.662766 7.216137 0 253 19 0
2019-10-20 11:55:45 GMT 43.662415 7.217155 0 315 20 0
2019-10-20 11:55:34 GMT 43.661385 7.217155 0 33 30 0
2019-10-20 11:55:25 GMT 43.660355 7.215782 0 39 44 0
2019-10-20 11:55:22 GMT 43.660183 7.215447 0 42 46 0
2019-10-20 11:55:12 GMT 43.658119 7.212704 0 42 76 0
2019-10-20 11:55:03 GMT 43.655685 7.209267 -25 42 106 -128
2019-10-20 11:55:00 GMT 43.654686 7.207881 -25 43 111 -256
2019-10-20 11:54:50 GMT 43.651569 7.203762 25 46 115 -64
2019-10-20 11:54:46 GMT 43.650055 7.201666 75 46 113 -192
2019-10-20 11:54:43 GMT 43.648823 7.200165 100 48 115 -576
2019-10-20 11:54:38 GMT 43.647629 7.198281 150 47 116 -640
2019-10-20 11:54:27 GMT 43.644012 7.193426 225 48 118 -640
2019-10-20 11:54:21 GMT 43.642319 7.191063 300 48 120 -576
2019-10-20 11:54:14 GMT 43.640259 7.188125 350 50 120 -640
2019-10-20 11:54:10 GMT 43.638885 7.186208 400 49 120 -768
2019-10-20 11:54:05 GMT 43.636997 7.183685 425 48 123 -384
2019-10-20 11:54:01 GMT 43.635460 7.181462 475 48 126 -768
2019-10-20 11:53:54 GMT 43.633209 7.178352 550 47 125 -576
2019-10-20 11:53:48 GMT 43.631691 7.176296 575 48 125 -448
2019-10-20 11:53:41 GMT 43.629269 7.173222 625 47 129 -512
2019-10-20 11:53:37 GMT 43.627899 7.171134 675 48 133 -640
2019-10-20 11:53:31 GMT 43.625500 7.167860 750 48 137 -832
2019-10-20 11:53:28 GMT 43.624287 7.166159 800 46 138 -576
2019-10-20 11:53:18 GMT 43.620518 7.160993 875 45 126 -576
2019-10-20 11:53:09 GMT 43.617920 7.157210 950 47 115 -256
2019-10-20 11:52:58 GMT 43.614140 7.152230 1,150 45 157 -832
2019-10-20 11:52:47 GMT 43.610229 7.147260 1,150 45 145 -320
2019-10-20 11:52:35 GMT 43.604874 7.140091 1,300 45 157 -832
2019-10-20 11:52:25 GMT 43.599754 7.132874 1,425 45 158 -576
2019-10-20 11:52:13 GMT 43.595470 7.126857 1,550 46 152 -704
2019-10-20 11:52:04 GMT 43.591507 7.121185 2,075 47 142 -576
2019-10-20 11:51:54 GMT 43.587559 7.115871 1,750 47 139 -512
2019-10-20 11:51:43 GMT 43.582901 7.109304 1,875 48 146 -640
2019-10-20 11:51:32 GMT 43.578644 7.103300 2,075 47 154 -704
2019-10-20 11:51:21 GMT 43.573837 7.097168 2,125 45 158 -768
2019-10-20 11:51:12 GMT 43.569031 7.091483 2,250 43 171 -1088
2019-10-20 11:51:02 GMT 43.563351 7.085135 2,400 43 173 -1024
2019-10-20 11:50:51 GMT 43.557671 7.078269 2,525 45 184 -960
2019-10-20 11:50:41 GMT 43.551666 7.070029 2,800 50 192 -896
2019-10-20 11:50:31 GMT 43.546371 7.060249 2,875 58 201 -896
2019-10-20 11:50:19 GMT 43.541706 7.048580 3,050 65 205 -1024
2019-10-20 11:50:08 GMT 43.537949 7.037063 3,300 66 212 -1088
2019-10-20 11:50:00 GMT 43.533978 7.026934 3,425 59 219 -1280
2019-10-20 11:49:48 GMT 43.527283 7.014898 4,225 39 219 -2304
2019-10-20 11:49:33 GMT 43.515106 7.004295 4,225 6 211 -2496
2019-10-20 11:49:23 GMT 43.504303 7.004934 4,600 348 214 -1280
2019-10-20 11:49:17 GMT 43.497620 7.009081 4,775 323 220 -1024
2019-10-20 11:49:13 GMT 43.495010 7.011832 4,850 318 221 -1472
2019-10-20 11:49:02 GMT 43.487144 7.025234 5,125 297 226 -1536
2019-10-20 11:48:50 GMT 43.479904 7.040320 5,425 297 235 -1664
2019-10-20 11:48:40 GMT 43.473221 7.054372 5,675 296 245 -1344
2019-10-20 11:48:34 GMT 43.468918 7.063506 5,850 296 249 -1536
2019-10-20 11:48:29 GMT 43.466034 7.069702 5,950 297 252 -1536
2019-10-20 11:48:24 GMT 43.462238 7.077746 6,100 296 252 -1408
2019-10-20 11:48:19 GMT 43.458984 7.084776 6,225 297 253 -1536
2019-10-20 11:48:13 GMT 43.455368 7.092697 6,375 297 256 -1472
2019-10-20 11:48:07 GMT 43.451248 7.101767 6,525 296 254 -1408
2019-10-20 11:48:02 GMT 43.447815 7.108985 6,650 296 252 -1792
2019-10-20 11:47:57 GMT 43.444550 7.116198 6,775 296 250 -1472
2019-10-20 11:47:52 GMT 43.441292 7.123260 6,900 297 249 -1536
2019-10-20 11:47:46 GMT 43.437332 7.131500 7,050 298 250 -1536
2019-10-20 11:47:42 GMT 43.433937 7.138694 7,175 297 258 -1408
2019-10-20 11:47:35 GMT 43.430145 7.146734 7,325 297 267 -1088
2019-10-20 11:47:31 GMT 43.427216 7.152930 7,400 296 259 -1728
2019-10-20 11:47:21 GMT 43.420532 7.167685 7,675 296 253 -1664
2019-10-20 11:47:12 GMT 43.415035 7.179369 7,875 296 247 -1472
2019-10-20 11:47:09 GMT 43.413315 7.183293 7,975 295 240 -2176
2019-10-20 11:46:59 GMT 43.406796 7.197026 8,225 295 236 -1280
2019-10-20 11:46:56 GMT 43.405075 7.200492 8,300 297 237 -896
2019-10-20 11:46:48 GMT 43.400463 7.209909 8,425 296 240 -1664
2019-10-20 11:46:45 GMT 43.398743 7.213505 8,550 296 240 -2048
2019-10-20 11:46:37 GMT 43.393391 7.224165 8,825 297 251 -1536
2019-10-20 11:46:34 GMT 43.391510 7.227982 8,825 297 251 -1536
2019-10-20 11:46:26 GMT 43.386200 7.238968 9,000 296 259 -1536
2019-10-20 11:46:16 GMT 43.379143 7.253004 9,300 296 273 -1472
2019-10-20 11:46:04 GMT 43.370911 7.269819 9,600 294 284 -1536
2019-10-20 11:45:54 GMT 43.363037 7.286491 9,875 294 285 -1536
2019-10-20 11:45:45 GMT 43.356857 7.299393 10,100 294 287 -1472
2019-10-20 11:45:42 GMT 43.354935 7.303481 10,175 294 286 -1472
2019-10-20 11:45:34 GMT 43.349445 7.315325 10,375 293 285 -1536
2019-10-20 11:45:30 GMT 43.346695 7.320982 10,475 293 285 -1472
2019-10-20 11:45:23 GMT 43.341751 7.331266 10,625 293 286 -1536
2019-10-20 11:45:20 GMT 43.339481 7.335924 10,725 293 286 -1536
2019-10-20 11:45:15 GMT 43.335197 7.344687 10,850 293 286 -1472
2019-10-20 11:45:12 GMT 43.333988 7.347434 10,900 293 286 -1472
2019-10-20 11:45:09 GMT 43.331615 7.352208 11,000 293 288 -1472
2019-10-20 11:45:03 GMT 43.327473 7.360840 11,125 294 290 -1408
2019-10-20 11:44:58 GMT 43.323887 7.368229 11,250 294 292 -1408
2019-10-20 11:44:52 GMT 43.319595 7.377319 11,400 293 291 -1472
2019-10-20 11:44:47 GMT 43.315971 7.384709 11,500 293 286 -1472
2019-10-20 11:44:36 GMT 43.308105 7.401646 11,800 292 276 -1600
2019-10-20 11:44:32 GMT 43.305359 7.407532 11,900 292 272 -1280
2019-10-20 11:44:25 GMT 43.300705 7.416949 12,000 291 270 -128
2019-10-20 11:44:21 GMT 43.298141 7.422965 12,000 292 269 64
2019-10-20 11:44:14 GMT 43.293488 7.432251 12,000 292 269 0
2019-10-20 11:44:11 GMT 43.291252 7.436698 12,000 292 269 0
2019-10-20 11:44:03 GMT 43.286133 7.447488 12,000 292 269 0
2019-10-20 11:44:00 GMT 43.284073 7.451605 12,000 292 268 64
2019-10-20 11:43:50 GMT 43.277206 7.466232 12,000 291 272 -64
2019-10-20 11:43:42 GMT 43.271889 7.477373 12,000 292 270 128
2019-10-20 11:43:39 GMT 43.270164 7.480643 12,000 292 270 0
2019-10-20 11:43:28 GMT 43.263138 7.495422 12,000 292 269 -64
2019-10-20 11:43:18 GMT 43.256062 7.510005 12,000 292 271 -64
2019-10-20 11:43:07 GMT 43.248707 7.525112 12,000 292 271 0
2019-10-20 11:42:57 GMT 43.242004 7.538665 12,000 292 272 64
2019-10-20 11:42:47 GMT 43.235298 7.552381 12,000 292 270 64
2019-10-20 11:42:35 GMT 43.227570 7.568534 12,000 293 269 0
2019-10-20 11:42:26 GMT 43.220867 7.582070 12,000 293 270 -64
2019-10-20 11:42:16 GMT 43.213852 7.596535 12,000 293 270 0
2019-10-20 11:42:05 GMT 43.206985 7.610268 12,000 293 270 64
2019-10-20 11:41:54 GMT 43.199432 7.625661 12,000 293 268 0
2019-10-20 11:41:45 GMT 43.192886 7.638756 12,000 293 268 0
2019-10-20 11:41:33 GMT 43.184834 7.655051 12,000 293 271 64
2019-10-20 11:41:23 GMT 43.177807 7.669111 12,000 293 270 0
2019-10-20 11:41:11 GMT 43.170776 7.683531 12,000 292 269 64
2019-10-20 11:41:02 GMT 43.164074 7.697100 12,000 292 268 -64
2019-10-20 11:40:52 GMT 43.157547 7.710486 12,000 291 269 -64
2019-10-20 11:40:42 GMT 43.151039 7.723912 12,000 292 269 0
2019-10-20 11:40:31 GMT 43.143822 7.739018 12,000 292 269 0
2019-10-20 11:40:21 GMT 43.136608 7.753601 12,000 292 268 0
2019-10-20 11:40:09 GMT 43.129719 7.767857 12,000 292 268 -64
2019-10-20 11:40:00 GMT 43.123058 7.781721 12,000 292 269 0
2019-10-20 11:39:49 GMT 43.116348 7.795630 12,000 292 268 -64
2019-10-20 11:39:37 GMT 43.108612 7.811407 12,000 291 271 0
2019-10-20 11:39:26 GMT 43.101562 7.826034 12,000 291 271 0
2019-10-20 11:39:16 GMT 43.094524 7.840445 12,000 291 271 0
2019-10-20 11:39:04 GMT 43.086983 7.856075 12,000 292 271 0
2019-10-20 11:38:54 GMT 43.080463 7.869481 12,000 292 272 0
2019-10-20 11:38:43 GMT 43.073090 7.884734 12,000 292 272 0
2019-10-20 11:38:36 GMT 43.068100 7.894826 12,000 292 272 0
2019-10-20 11:38:32 GMT 43.066219 7.898778 12,000 292 272 0
2019-10-20 11:38:27 GMT 43.062424 7.906515 12,000 292 272 0
2019-10-20 11:38:21 GMT 43.058487 7.914436 12,000 292 272 -64
2019-10-20 11:38:10 GMT 43.051464 7.928859 12,000 292 272 -64
2019-10-20 11:38:05 GMT 43.047501 7.936919 12,000 292 270 64
2019-10-20 11:38:02 GMT 43.046127 7.939858 12,000 292 270 64
2019-10-20 11:37:58 GMT 43.043407 7.945469 12,000 292 270 -128
2019-10-20 11:37:53 GMT 43.040104 7.952009 12,000 292 269 -64
2019-10-20 11:37:47 GMT 43.035496 7.961622 12,000 292 269 -128
2019-10-20 11:37:41 GMT 43.032051 7.968685 12,000 292 270 0
2019-10-20 11:37:36 GMT 43.028778 7.975180 12,000 292 271 0
2019-10-20 11:37:32 GMT 43.021576 7.990330 12,000 292 271 0
2019-10-20 11:37:25 GMT 43.021576 7.990330 12,000 292 271 -64
2019-10-20 11:37:13 GMT 43.013336 8.006810 12,000 292 270 0
2019-10-20 11:37:01 GMT 43.006493 8.021197 12,000 292 271 -64
2019-10-20 11:36:50 GMT 42.999092 8.036303 12,000 292 270 0
2019-10-20 11:36:39 GMT 42.991875 8.050886 12,000 292 271 0
2019-10-20 11:36:28 GMT 42.984146 8.066515 12,000 292 271 0
2019-10-20 11:36:16 GMT 42.976421 8.082341 12,000 293 270 64
2019-10-20 11:36:08 GMT 42.971100 8.093283 12,000 293 270 64
2019-10-20 11:36:04 GMT 42.968719 8.098074 12,000 293 270 64
2019-10-20 11:35:57 GMT 42.964233 8.107208 12,000 293 270 0
2019-10-20 11:35:53 GMT 42.961525 8.112880 12,000 293 270 64
2019-10-20 11:35:45 GMT 42.955994 8.124006 12,000 293 270 0
2019-10-20 11:35:41 GMT 42.953796 8.128861 12,000 293 269 0
2019-10-20 11:35:31 GMT 42.946583 8.143420 12,000 293 268 0
2019-10-20 11:35:19 GMT 42.939178 8.158526 12,000 293 268 0
2019-10-20 11:35:11 GMT 42.933884 8.169357 12,000 293 268 0
2019-10-20 11:35:08 GMT 42.931824 8.173956 12,000 293 267 64
2019-10-20 11:35:02 GMT 42.927868 8.181872 12,000 293 268 0
2019-10-20 11:34:56 GMT 42.923584 8.190438 12,000 293 267 0
2019-10-20 11:34:43 GMT 42.915997 8.206068 12,000 293 265 0
2019-10-20 11:34:33 GMT 42.909302 8.219498 12,000 293 265 0
2019-10-20 11:34:22 GMT 42.902298 8.233742 12,000 294 263 -64
2019-10-20 11:34:11 GMT 42.895420 8.248313 12,000 294 261 -64
2019-10-20 11:34:00 GMT 42.888382 8.262230 12,000 294 259 64
2019-10-20 11:33:51 GMT 42.882706 8.273535 12,000 294 255 0
2019-10-20 11:33:40 GMT 42.875870 8.287942 12,000 294 252 0
2019-10-20 11:33:29 GMT 42.869843 8.299979 12,000 293 247 0
2019-10-20 11:33:19 GMT 42.863480 8.312882 12,000 293 242 0
2019-10-20 11:33:08 GMT 42.857666 8.325018 12,000 292 237 0
2019-10-20 11:32:58 GMT 42.851986 8.336400 12,000 291 231 0
2019-10-20 11:32:49 GMT 42.846313 8.347885 12,000 291 223 0
2019-10-20 11:32:36 GMT 42.839977 8.360726 12,000 290 214 0
2019-10-20 11:32:28 GMT 42.835510 8.369666 12,000 290 206 640
2019-10-20 11:32:16 GMT 42.830017 8.380652 11,825 290 205 1280
2019-10-20 11:32:06 GMT 42.825211 8.390425 11,575 290 205 1600
2019-10-20 11:31:55 GMT 42.819725 8.401402 11,300 291 205 1344
2019-10-20 11:31:44 GMT 42.813862 8.413108 11,075 291 204 1216
2019-10-20 11:31:35 GMT 42.809235 8.422745 10,900 291 203 1088
2019-10-20 11:31:23 GMT 42.803387 8.434562 10,700 291 202 1088
2019-10-20 11:31:12 GMT 42.797928 8.445865 10,050 291 202 960
2019-10-20 11:31:02 GMT 42.792770 8.456215 10,350 291 200 1088
2019-10-20 11:30:51 GMT 42.787079 8.467525 10,125 290 201 1344
2019-10-20 11:30:41 GMT 42.782112 8.477485 9,900 291 200 1216
2019-10-20 11:30:30 GMT 42.776779 8.488312 9,700 291 200 1088
2019-10-20 11:30:19 GMT 42.771313 8.499075 9,525 290 198 1152
2019-10-20 11:30:08 GMT 42.765793 8.509910 9,300 290 199 1216
2019-10-20 11:29:58 GMT 42.760651 8.520217 9,000 290 198 1024
2019-10-20 11:29:47 GMT 42.755493 8.530509 8,925 290 197 1152
2019-10-20 11:29:35 GMT 42.749496 8.542682 8,675 290 196 1152
2019-10-20 11:29:26 GMT 42.745743 8.550797 8,525 289 195 1216
2019-10-20 11:29:16 GMT 42.740726 8.561096 8,275 288 195 1344
2019-10-20 11:29:05 GMT 42.735607 8.571891 8,025 288 194 1344
2019-10-20 11:28:54 GMT 42.730625 8.582686 7,800 286 193 1344
2019-10-20 11:28:42 GMT 42.725464 8.594555 7,500 286 193 1600
2019-10-20 11:28:34 GMT 42.721874 8.603317 7,250 288 191 1344
2019-10-20 11:28:22 GMT 42.716892 8.615325 6,975 287 192 1408
2019-10-20 11:28:12 GMT 42.712608 8.625801 6,750 288 191 1344
2019-10-20 11:28:01 GMT 42.707256 8.636787 6,500 293 191 1216
2019-10-20 11:27:49 GMT 42.699554 8.647926 6,200 307 188 1152
2019-10-20 11:27:40 GMT 42.693192 8.653918 6,050 316 187 1536
2019-10-20 11:27:30 GMT 42.685318 8.660785 5,800 317 189 1728
2019-10-20 11:27:19 GMT 42.675694 8.669363 5,475 317 187 1600
2019-10-20 11:27:09 GMT 42.668804 8.675239 5,225 318 188 1408
2019-10-20 11:26:59 GMT 42.660053 8.682968 4,475 318 185 1664
2019-10-20 11:26:44 GMT 42.649437 8.692421 4,700 318 185 1280
2019-10-20 11:26:37 GMT 42.643936 8.697177 4,550 317 184 1664
2019-10-20 11:26:26 GMT 42.634819 8.705068 4,225 318 185 1472
2019-10-20 11:26:16 GMT 42.627640 8.711596 4,025 313 184 960
2019-10-20 11:26:06 GMT 42.620575 8.720909 3,800 296 184 1280
2019-10-20 11:25:54 GMT 42.615280 8.731384 3,550 293 181 1472
2019-10-20 11:25:43 GMT 42.609604 8.742371 3,275 293 182 1472
2019-10-20 11:25:20 GMT 42.598789 8.764982 2,700 292 182 1536
2019-10-20 11:25:12 GMT 42.596375 8.771022 2,525 291 183 1664
2019-10-20 11:25:01 GMT 42.591751 8.782321 2,275 297 179 896
2019-10-20 11:24:52 GMT 42.586407 8.788871 2,100 325 177 1408
2019-10-20 11:24:40 GMT 42.577515 8.792308 1,825 356 177 1792
2019-10-20 11:24:30 GMT 42.569092 8.792308 1,550 358 176 960
2019-10-20 11:24:09 GMT 42.554489 8.792308 1,350 357 149 512
2019-10-20 11:23:59 GMT 42.547955 8.792448 1,225 355 138 896
2019-10-20 11:23:48 GMT 42.541443 8.792808 1,000 356 127 1536

Making use of Plane Finder data

You are free to use the raw flight data, aircraft information and images provided in this report for your own purposes provided the data is correctly attributed to Plane Finder. We ask that you please credit Plane Finder and link to planefinder.net in close proximity to the content.

Optionally one of the following logos (no smaller then 150x24px) can be used and must link to planefinder.net

Embedding the Plane Finder map

You are welcome to embed the Plane Finder playback map on your website to offer visitors a more interactive experience. We suggest using the following HTML code:

<iframe src="//planefinder.net/data/report/XK310-F-GRPY-7700-squawk-2019-10-20/map" width="800" height="600" seamless="seamless"></iframe>

Where our data comes from

Plane Finder has a global network of data feeds and antenna radars that receive data broadcast directly from aircraft. The primary technologies used are ADS-B and MLAT. We also show feeds from the FAA and a FLARM glider feed.

Click here to find out more about the Plane Finder network.

How we collect our data